createdAt,value
2023-03-03T00:01:02.810Z,100940.00
2023-03-03T00:03:30.690Z,100940.00
2023-03-03T00:05:58.619Z,100922.00
2023-03-03T00:08:26.371Z,100931.00
2023-03-03T00:10:55.809Z,100932.00
2023-03-03T00:13:24.384Z,100928.00
2023-03-03T00:15:52.648Z,100923.00
2023-03-03T00:18:27.526Z,100922.00
2023-03-03T00:20:56.304Z,100920.00
2023-03-03T00:23:32.385Z,100927.00
2023-03-03T00:26:00.124Z,100923.00
2023-03-03T00:28:28.410Z,100925.00
2023-03-03T00:30:57.613Z,100932.00
2023-03-03T00:33:32.745Z,100935.00
2023-03-03T00:36:21.796Z,100934.00
2023-03-03T00:38:49.752Z,100935.00
2023-03-03T00:41:21.843Z,100933.00
2023-03-03T00:43:49.946Z,100929.00
2023-03-03T00:46:21.626Z,100934.00
2023-03-03T00:48:50.258Z,100937.00
2023-03-03T00:51:17.937Z,100943.00
2023-03-03T00:53:45.699Z,100944.00
2023-03-03T00:56:13.525Z,100940.00
2023-03-03T00:58:41.309Z,100951.00
2023-03-03T05:05:15.832Z,100935.00
2023-03-03T05:07:43.572Z,100939.00
2023-03-03T05:10:11.441Z,100940.00
2023-03-03T05:12:39.118Z,100943.00
2023-03-03T05:15:07.469Z,100943.00
2023-03-03T05:17:35.164Z,100943.00
2023-03-03T05:20:02.727Z,100954.00
2023-03-03T05:22:30.415Z,100943.00
2023-03-03T05:24:58.174Z,100944.00
2023-03-03T05:27:25.840Z,100940.00
2023-03-03T05:29:53.721Z,100933.00
2023-03-03T05:32:21.445Z,100930.00
2023-03-03T05:34:49.133Z,100925.00
2023-03-03T05:37:16.770Z,100922.00
2023-03-03T05:39:44.804Z,100918.00
2023-03-03T05:42:13.993Z,100911.00
2023-03-03T05:44:41.894Z,100916.00
2023-03-03T05:47:10.082Z,100910.00
2023-03-03T05:49:37.791Z,100910.00
2023-03-03T05:52:05.536Z,100910.00
2023-03-03T05:54:33.203Z,100901.00
2023-03-03T05:57:00.922Z,100912.00
2023-03-03T05:59:28.632Z,100915.00
2023-03-03T06:01:56.244Z,100917.00
2023-03-03T06:04:23.885Z,100915.00
2023-03-03T06:06:51.604Z,100934.00
2023-03-03T06:09:19.507Z,100939.00
2023-03-03T06:11:47.175Z,100940.00
2023-03-03T06:14:15.036Z,100939.00
2023-03-03T06:16:42.831Z,100953.00
2023-03-03T06:19:10.496Z,100959.00
2023-03-03T06:21:38.217Z,100959.00
2023-03-03T06:24:07.313Z,100966.00
2023-03-03T06:26:34.982Z,100965.00
2023-03-03T06:29:02.818Z,100957.00
2023-03-03T06:31:31.108Z,100968.00
2023-03-03T06:33:58.984Z,100972.00
2023-03-03T06:36:26.693Z,100965.00
2023-03-03T06:38:54.588Z,100964.00
2023-03-03T06:41:22.425Z,100967.00
2023-03-03T06:43:50.010Z,100969.00
2023-03-03T06:46:17.914Z,100970.00
2023-03-03T06:48:45.528Z,100965.00
2023-03-03T06:51:32.338Z,100972.00
2023-03-03T06:54:00.532Z,100973.00
2023-03-03T06:56:28.260Z,100975.00
2023-03-03T06:59:02.991Z,100973.00
2023-03-03T07:01:31.279Z,100969.00
2023-03-03T07:03:58.861Z,100974.00
2023-03-03T07:06:28.359Z,100986.00
2023-03-03T07:08:57.872Z,100984.00
2023-03-03T07:11:25.691Z,100986.00
2023-03-03T07:13:54.810Z,100987.00
2023-03-03T07:16:26.233Z,100985.00
2023-03-03T07:18:56.992Z,100991.00
2023-03-03T07:21:38.185Z,100991.00
2023-03-03T07:24:27.539Z,100992.00
2023-03-03T07:27:00.231Z,101006.00
2023-03-03T07:29:30.782Z,100999.00
2023-03-03T07:31:59.205Z,101005.00
2023-03-03T07:34:27.186Z,100998.00
2023-03-03T07:36:55.559Z,101001.00
2023-03-03T07:39:39.035Z,101000.00
2023-03-03T07:42:24.624Z,101006.00
2023-03-03T07:45:04.667Z,101003.00
2023-03-03T07:47:35.777Z,101005.00
2023-03-03T07:50:33.076Z,101015.00
2023-03-03T07:53:00.974Z,101011.00
2023-03-03T07:55:28.792Z,101013.00
2023-03-03T07:57:59.144Z,101008.00
2023-03-03T08:00:27.289Z,101015.00
2023-03-03T08:03:02.904Z,101016.00
2023-03-03T08:05:37.560Z,101021.00
2023-03-03T08:08:16.633Z,101021.00
2023-03-03T08:10:49.043Z,101028.00
2023-03-03T08:13:18.462Z,101030.00
2023-03-03T08:15:47.277Z,101030.00
2023-03-03T08:18:33.724Z,101038.00
2023-03-03T08:21:01.872Z,101041.00
2023-03-03T08:23:29.421Z,101039.00
2023-03-03T08:25:57.093Z,101035.00
2023-03-03T08:28:24.778Z,101032.00
2023-03-03T08:31:02.696Z,101034.00
2023-03-03T08:33:33.539Z,101044.00
2023-03-03T08:36:01.844Z,101038.00
2023-03-03T08:38:29.606Z,101037.00
2023-03-03T08:40:57.369Z,101040.00
2023-03-03T08:43:25.154Z,101038.00
2023-03-03T08:45:56.554Z,101040.00
2023-03-03T08:48:24.291Z,101043.00
2023-03-03T08:50:51.966Z,101054.00
2023-03-03T08:53:19.960Z,101056.00
2023-03-03T08:55:48.090Z,101056.00
2023-03-03T08:58:17.105Z,101059.00
2023-03-03T09:00:47.898Z,101051.00
2023-03-03T09:03:16.630Z,101045.00
2023-03-03T09:05:45.580Z,101049.00
2023-03-03T09:08:13.838Z,101049.00
2023-03-03T09:10:41.656Z,101047.00
2023-03-03T09:13:17.227Z,101050.00
2023-03-03T09:15:44.980Z,101048.00
2023-03-03T09:18:20.156Z,101049.00
2023-03-03T09:20:54.411Z,101049.00
2023-03-03T09:23:34.182Z,101048.00
2023-03-03T09:26:13.763Z,101041.00
2023-03-03T09:28:41.511Z,101047.00
2023-03-03T09:31:17.821Z,101040.00
2023-03-03T09:33:45.883Z,101041.00
2023-03-03T09:36:21.881Z,101042.00
2023-03-03T09:38:49.599Z,101041.00
2023-03-03T09:41:32.707Z,101048.00
2023-03-03T09:44:19.026Z,101038.00
2023-03-03T09:46:52.159Z,101039.00
2023-03-03T09:49:28.986Z,101040.00
2023-03-03T09:52:16.317Z,101039.00
2023-03-03T09:55:02.265Z,101045.00
2023-03-03T09:58:04.482Z,101041.00
2023-03-03T10:00:46.837Z,101045.00
2023-03-03T10:03:27.693Z,101043.00
2023-03-03T10:06:12.413Z,101046.00
2023-03-03T10:08:58.886Z,101042.00
2023-03-03T10:11:34.776Z,101045.00
2023-03-03T10:14:25.380Z,101042.00
2023-03-03T10:16:54.057Z,101055.00
2023-03-03T10:19:37.385Z,101067.00
2023-03-03T10:22:08.303Z,101055.00
2023-03-03T10:24:54.792Z,101058.00
2023-03-03T10:27:44.934Z,101059.00
2023-03-03T10:30:38.302Z,101057.00
2023-03-03T10:33:15.566Z,101063.00
2023-03-03T10:36:04.664Z,101058.00
2023-03-03T10:39:00.585Z,101055.00
2023-03-03T10:41:43.807Z,101052.00
2023-03-03T10:44:17.656Z,101062.00
2023-03-03T10:47:01.264Z,101054.00
2023-03-03T10:49:47.120Z,101052.00
2023-03-03T10:52:17.712Z,101044.00
2023-03-03T10:55:08.568Z,101045.00
2023-03-03T10:57:39.208Z,101060.00
2023-03-03T11:00:21.492Z,101047.00
2023-03-03T11:03:04.291Z,101051.00
2023-03-03T11:05:36.406Z,101057.00
2023-03-03T11:08:05.818Z,101041.00
2023-03-03T11:10:39.332Z,101045.00
2023-03-03T11:13:13.972Z,101043.00
2023-03-03T11:15:50.244Z,101033.00
2023-03-03T11:18:26.496Z,101032.00
2023-03-03T11:20:54.143Z,101031.00
2023-03-03T11:23:28.019Z,101027.00
2023-03-03T11:25:56.246Z,101026.00
2023-03-03T11:28:32.973Z,101023.00
2023-03-03T11:31:16.344Z,101021.00
2023-03-03T11:33:56.452Z,101028.00
2023-03-03T11:36:40.124Z,101030.00
2023-03-03T11:39:15.059Z,101023.00
2023-03-03T11:41:45.926Z,101021.00
2023-03-03T11:44:32.332Z,101027.00
2023-03-03T11:47:20.268Z,101028.00
2023-03-03T11:49:53.253Z,101029.00
2023-03-03T11:52:44.262Z,101017.00
2023-03-03T11:55:21.339Z,101014.00
2023-03-03T11:58:08.920Z,101014.00
2023-03-03T12:00:48.162Z,101006.00
2023-03-03T12:03:16.127Z,101009.00
2023-03-03T12:05:49.637Z,101001.00
2023-03-03T12:08:17.303Z,101001.00
2023-03-03T12:11:00.397Z,101001.00
2023-03-03T12:13:43.685Z,100998.00
2023-03-03T12:16:21.634Z,100995.00
2023-03-03T12:18:52.803Z,100992.00
2023-03-03T12:21:24.342Z,100989.00
2023-03-03T12:23:58.709Z,100983.00
2023-03-03T12:26:30.343Z,100985.00
2023-03-03T12:29:13.388Z,100985.00
2023-03-03T12:31:41.264Z,100984.00
2023-03-03T12:34:18.331Z,100991.00
2023-03-03T12:36:58.790Z,100991.00
2023-03-03T12:39:35.156Z,100981.00
2023-03-03T12:42:10.762Z,100984.00
2023-03-03T12:44:41.547Z,100983.00
2023-03-03T12:47:19.908Z,100979.00
2023-03-03T12:50:06.498Z,100979.00
2023-03-03T12:52:42.899Z,100974.00
2023-03-03T12:55:11.695Z,100984.00
2023-03-03T12:57:42.556Z,100978.00
2023-03-03T13:00:13.640Z,100968.00
2023-03-03T13:03:00.720Z,100975.00
2023-03-03T13:05:28.698Z,100970.00
2023-03-03T13:08:14.974Z,100966.00
2023-03-03T13:10:53.581Z,100962.00
2023-03-03T13:13:21.211Z,100960.00
2023-03-03T13:15:59.571Z,100952.00
2023-03-03T13:18:34.778Z,100954.00
2023-03-03T13:21:14.819Z,100955.00
2023-03-03T13:23:54.443Z,100955.00
2023-03-03T13:26:31.809Z,100949.00
2023-03-03T13:29:20.071Z,100955.00
2023-03-03T13:31:48.997Z,100951.00
2023-03-03T13:34:35.465Z,100949.00
2023-03-03T13:37:08.429Z,100954.00
2023-03-03T13:39:40.889Z,100952.00
2023-03-03T13:42:27.006Z,100952.00
2023-03-03T13:44:55.044Z,100938.00
2023-03-03T13:47:31.996Z,100936.00
2023-03-03T13:50:23.104Z,100937.00
2023-03-03T13:53:00.296Z,100927.00
2023-03-03T13:55:38.230Z,100927.00
2023-03-03T13:58:15.260Z,100922.00
2023-03-03T14:01:01.167Z,100924.00
2023-03-03T14:03:49.702Z,100918.00
2023-03-03T14:06:19.062Z,100916.00
2023-03-03T14:08:49.886Z,100918.00
2023-03-03T14:11:24.145Z,100907.00
2023-03-03T14:14:00.517Z,100906.00
2023-03-03T14:16:47.840Z,100894.00
2023-03-03T14:19:17.848Z,100905.00
2023-03-03T14:21:54.334Z,100900.00
2023-03-03T14:24:23.478Z,100907.00
2023-03-03T14:26:55.293Z,100906.00
2023-03-03T14:29:23.077Z,100905.00
2023-03-03T14:31:51.046Z,100904.00
2023-03-03T14:34:24.936Z,100897.00
2023-03-03T14:36:54.151Z,100901.00
2023-03-03T14:39:27.634Z,100896.00
2023-03-03T14:41:57.639Z,100896.00
2023-03-03T14:44:28.703Z,100890.00
2023-03-03T14:47:15.350Z,100886.00
2023-03-03T14:49:43.023Z,100889.00
2023-03-03T14:52:17.108Z,100882.00
2023-03-03T14:54:48.606Z,100895.00
2023-03-03T14:57:17.682Z,100885.00
2023-03-03T15:00:11.075Z,100890.00
2023-03-03T15:02:41.267Z,100885.00
2023-03-03T15:05:13.879Z,100886.00
2023-03-03T15:07:41.741Z,100881.00
2023-03-03T15:10:10.218Z,100889.00
2023-03-03T15:12:38.935Z,100874.00
2023-03-03T15:15:07.438Z,100881.00
2023-03-03T15:17:37.821Z,100877.00
2023-03-03T15:20:24.257Z,100877.00
2023-03-03T15:22:52.014Z,100873.00
2023-03-03T15:25:20.939Z,100867.00
2023-03-03T15:28:08.350Z,100874.00
2023-03-03T15:30:44.313Z,100868.00
2023-03-03T15:33:38.557Z,100866.00
2023-03-03T15:36:12.309Z,100861.00
2023-03-03T15:38:57.188Z,100860.00
2023-03-03T15:41:29.642Z,100853.00
2023-03-03T15:44:13.117Z,100854.00
2023-03-03T15:46:44.008Z,100844.00
2023-03-03T15:49:23.257Z,100846.00
2023-03-03T15:52:21.694Z,100846.00
2023-03-03T15:54:51.270Z,100839.00
2023-03-03T15:57:57.472Z,100850.00
2023-03-03T16:00:55.558Z,100848.00
2023-03-03T16:03:32.379Z,100846.00
2023-03-03T16:06:07.915Z,100849.00
2023-03-03T16:08:44.552Z,100849.00
2023-03-03T16:11:24.283Z,100846.00
2023-03-03T16:14:10.442Z,100849.00
2023-03-03T16:16:49.409Z,100844.00
2023-03-03T16:19:37.530Z,100838.00
2023-03-03T16:22:09.470Z,100839.00
2023-03-03T16:24:37.125Z,100843.00
2023-03-03T16:27:06.735Z,100853.00
2023-03-03T16:29:53.129Z,100848.00
2023-03-03T16:32:23.699Z,100850.00
2023-03-03T16:35:01.246Z,100848.00
2023-03-03T16:37:33.495Z,100863.00
2023-03-03T16:40:01.212Z,100850.00
2023-03-03T16:42:32.623Z,100852.00
2023-03-03T16:45:21.423Z,100856.00
2023-03-03T16:48:00.454Z,100860.00
2023-03-03T16:50:32.625Z,100862.00
2023-03-03T16:53:01.665Z,100858.00
2023-03-03T16:55:31.404Z,100861.00
2023-03-03T16:58:11.477Z,100853.00
2023-03-03T17:00:51.151Z,100854.00
2023-03-03T17:03:21.917Z,100855.00
2023-03-03T17:05:51.530Z,100852.00
2023-03-03T17:08:22.352Z,100849.00
2023-03-03T17:11:16.519Z,100857.00
2023-03-03T17:13:47.214Z,100865.00
2023-03-03T17:16:16.840Z,100865.00
2023-03-03T17:18:47.492Z,100859.00
2023-03-03T17:21:15.371Z,100871.00
2023-03-03T17:23:49.747Z,100865.00
2023-03-03T17:26:37.685Z,100868.00
2023-03-03T17:29:26.984Z,100869.00
2023-03-03T17:32:14.408Z,100870.00
2023-03-03T17:34:51.963Z,100868.00
2023-03-03T17:37:55.132Z,100866.00
2023-03-03T17:40:23.049Z,100871.00
2023-03-03T17:42:56.740Z,100875.00
2023-03-03T17:45:24.416Z,100869.00
2023-03-03T17:47:52.165Z,100873.00
2023-03-03T17:50:19.985Z,100866.00
2023-03-03T17:52:47.815Z,100862.00
2023-03-03T17:55:41.808Z,100867.00
2023-03-03T17:58:21.922Z,100864.00
2023-03-03T18:01:01.379Z,100867.00
2023-03-03T18:03:29.955Z,100873.00
2023-03-03T18:06:07.243Z,100859.00
2023-03-03T18:08:38.088Z,100858.00
2023-03-03T18:11:44.412Z,100858.00
2023-03-03T18:14:30.643Z,100865.00
2023-03-03T18:17:07.078Z,100864.00
2023-03-03T18:19:56.685Z,100861.00
2023-03-03T18:22:26.271Z,100854.00
2023-03-03T18:24:57.734Z,100859.00
2023-03-03T18:27:25.458Z,100860.00
2023-03-03T18:30:08.440Z,100855.00
2023-03-03T18:32:44.448Z,100863.00
2023-03-03T18:35:35.554Z,100854.00
2023-03-03T18:38:18.462Z,100865.00
2023-03-03T18:41:04.821Z,100860.00
2023-03-03T18:43:44.449Z,100860.00
2023-03-03T18:46:21.585Z,100858.00
2023-03-03T18:49:03.048Z,100865.00
2023-03-03T18:51:39.880Z,100861.00
2023-03-03T18:54:08.816Z,100854.00
2023-03-03T18:56:43.768Z,100861.00
2023-03-03T18:59:12.078Z,100861.00
2023-03-03T19:01:43.613Z,100859.00
2023-03-03T19:04:16.470Z,100861.00
2023-03-03T19:06:44.061Z,100864.00
2023-03-03T19:09:12.718Z,100863.00
2023-03-03T19:11:58.514Z,100865.00
2023-03-03T19:14:27.833Z,100859.00
2023-03-03T19:16:55.920Z,100862.00
2023-03-03T19:19:25.443Z,100861.00
2023-03-03T19:22:13.121Z,100865.00
2023-03-03T19:24:40.770Z,100857.00
2023-03-03T19:27:18.389Z,100848.00
2023-03-03T19:29:45.917Z,100859.00
2023-03-03T19:32:38.266Z,100861.00
2023-03-03T19:35:15.626Z,100857.00
2023-03-03T19:37:44.289Z,100856.00
2023-03-03T19:40:33.427Z,100854.00
2023-03-03T19:43:09.648Z,100851.00
2023-03-03T19:45:46.382Z,100854.00
2023-03-03T19:48:26.063Z,100856.00
2023-03-03T19:50:53.665Z,100852.00
2023-03-03T19:53:27.599Z,100848.00
2023-03-03T19:55:57.254Z,100845.00
2023-03-03T19:58:25.044Z,100851.00
2023-03-03T20:01:08.614Z,100849.00
2023-03-03T20:03:56.204Z,100838.00
2023-03-03T20:06:42.902Z,100839.00
2023-03-03T20:09:10.658Z,100855.00
2023-03-03T20:11:59.540Z,100848.00
2023-03-03T20:14:27.449Z,100845.00
2023-03-03T20:16:58.116Z,100857.00
2023-03-03T20:19:47.915Z,100854.00
2023-03-03T20:22:21.488Z,100844.00
2023-03-03T20:25:04.115Z,100838.00
2023-03-03T20:27:52.648Z,100848.00
2023-03-03T20:30:26.468Z,100832.00
2023-03-03T20:33:03.270Z,100849.00
2023-03-03T20:35:49.630Z,100849.00
2023-03-03T20:38:27.097Z,100845.00
2023-03-03T20:40:57.887Z,100844.00
2023-03-03T20:43:28.521Z,100845.00
2023-03-03T20:46:00.300Z,100852.00
2023-03-03T20:48:48.269Z,100844.00
2023-03-03T20:51:28.813Z,100846.00
2023-03-03T20:54:03.622Z,100850.00
2023-03-03T20:56:36.936Z,100829.00
2023-03-03T20:59:13.742Z,100835.00
2023-03-03T21:01:55.879Z,100831.00
2023-03-03T21:04:28.246Z,100828.00
2023-03-03T21:06:56.499Z,100835.00
2023-03-03T21:09:27.226Z,100828.00
2023-03-03T21:11:57.568Z,100835.00
2023-03-03T21:14:29.260Z,100830.00
2023-03-03T21:16:58.294Z,100825.00
2023-03-03T21:19:33.251Z,100827.00
2023-03-03T21:22:02.237Z,100820.00
2023-03-03T21:24:48.951Z,100823.00
2023-03-03T21:27:32.813Z,100813.00
2023-03-03T21:30:06.384Z,100815.00
2023-03-03T21:32:35.363Z,100813.00
2023-03-03T21:35:12.456Z,100810.00
2023-03-03T21:37:44.614Z,100805.00
2023-03-03T21:40:16.527Z,100806.00
2023-03-03T21:42:45.203Z,100800.00
2023-03-03T21:45:13.545Z,100800.00
2023-03-03T21:47:41.371Z,100798.00
2023-03-03T21:50:09.741Z,100797.00
2023-03-03T21:52:37.394Z,100795.00
2023-03-03T21:55:05.169Z,100789.00
2023-03-03T21:57:32.845Z,100785.00
2023-03-03T22:00:00.585Z,100790.00
2023-03-03T22:02:28.403Z,100783.00
2023-03-03T22:04:55.962Z,100786.00
2023-03-03T22:07:23.669Z,100782.00
2023-03-03T22:09:51.376Z,100780.00
2023-03-03T22:12:19.307Z,100780.00
2023-03-03T22:14:46.842Z,100777.00
2023-03-03T22:17:14.493Z,100781.00
2023-03-03T22:19:42.108Z,100784.00
2023-03-03T22:22:09.851Z,100785.00
2023-03-03T22:24:37.425Z,100784.00
2023-03-03T22:27:05.077Z,100786.00
2023-03-03T22:29:32.780Z,100780.00
2023-03-03T22:32:00.520Z,100776.00
2023-03-03T22:34:28.336Z,100776.00
2023-03-03T22:36:55.972Z,100772.00
2023-03-03T22:39:23.563Z,100768.00
2023-03-03T22:41:51.150Z,100774.00
2023-03-03T22:44:18.737Z,100762.00
2023-03-03T22:46:46.297Z,100768.00
2023-03-03T22:49:13.896Z,100763.00
2023-03-03T22:51:41.397Z,100766.00
2023-03-03T22:54:08.962Z,100755.00
2023-03-03T22:56:36.541Z,100756.00
2023-03-03T22:59:04.623Z,100752.00
2023-03-03T23:01:32.390Z,100743.00
2023-03-03T23:04:00.021Z,100748.00
2023-03-03T23:06:27.793Z,100745.00
2023-03-03T23:08:55.335Z,100742.00
2023-03-03T23:11:24.840Z,100743.00
2023-03-03T23:13:52.616Z,100743.00
2023-03-03T23:16:22.588Z,100736.00
2023-03-03T23:18:50.445Z,100745.00
2023-03-03T23:21:18.150Z,100739.00
2023-03-03T23:23:45.795Z,100739.00
2023-03-03T23:26:13.533Z,100742.00
2023-03-03T23:28:41.109Z,100737.00
2023-03-03T23:31:09.002Z,100742.00
2023-03-03T23:33:36.944Z,100743.00
2023-03-03T23:36:04.854Z,100746.00
2023-03-03T23:38:34.803Z,100739.00
2023-03-03T23:41:02.718Z,100736.00
2023-03-03T23:43:30.486Z,100735.00
2023-03-03T23:45:58.278Z,100742.00
2023-03-03T23:48:25.951Z,100739.00
2023-03-03T23:50:53.570Z,100738.00
2023-03-03T23:53:21.194Z,100734.00
2023-03-03T23:55:48.801Z,100737.00
2023-03-03T23:58:16.671Z,100729.00
